Time;durP1;ratioP1;P1;durP2;ratioP2;P2;SDS_P1;SDS_P2;PMS_P1;PMS_P2;Temp;Humidity;BMP_temperature;BMP_pressure;BME280_temperature;BME280_humidity;BME280_pressure;Samples;Min_cycle;Max_cycle;Signal;HPM_P1;HPM_P2
2022/12/27 00:01:18;;;;;;;10.63;5.20;;;5.40;99.90;;;;;;5024197;28;20029;-71
2022/12/27 00:03:45;;;;;;;15.40;5.30;;;5.40;99.90;;;;;;5030155;28;20036;-71
2022/12/27 00:06:17;;;;;;;15.05;5.20;;;5.30;99.90;;;;;;5022281;28;20378;-71
2022/12/27 00:08:44;;;;;;;17.30;5.28;;;5.30;99.90;;;;;;5025865;28;20067;-71
2022/12/27 00:11:16;;;;;;;13.50;5.07;;;5.30;99.90;;;;;;5020492;28;20501;-71
2022/12/27 00:13:41;;;;;;;15.77;5.07;;;5.30;99.90;;;;;;5016593;28;20113;-71
2022/12/27 00:16:13;;;;;;;19.38;5.95;;;5.30;99.90;;;;;;5027436;28;20553;-71
2022/12/27 00:18:39;;;;;;;11.18;5.60;;;5.20;99.90;;;;;;5022698;28;20421;-71
2022/12/27 00:21:06;;;;;;;14.40;5.05;;;5.20;99.90;;;;;;5028887;28;20025;-71
2022/12/27 00:23:38;;;;;;;12.75;4.78;;;5.30;99.90;;;;;;5026758;28;20030;-71
2022/12/27 00:26:07;;;;;;;20.58;5.82;;;5.30;99.90;;;;;;5027579;28;20079;-71
2022/12/27 00:28:34;;;;;;;13.68;5.18;;;5.30;99.90;;;;;;5030658;28;20033;-71
2022/12/27 00:31:00;;;;;;;22.08;6.03;;;5.30;99.90;;;;;;5027750;28;20123;-71
2022/12/27 00:33:28;;;;;;;21.40;7.22;;;5.30;99.90;;;;;;5029730;28;20025;-71
2022/12/27 00:35:54;;;;;;;16.17;5.60;;;5.30;99.90;;;;;;5028229;28;20021;-71
2022/12/27 00:38:19;;;;;;;14.57;5.75;;;5.30;99.90;;;;;;5026596;28;20033;-71
2022/12/27 00:40:45;;;;;;;16.83;6.13;;;5.20;99.90;;;;;;5023014;28;20108;-71
2022/12/27 00:43:11;;;;;;;18.05;5.53;;;5.20;99.90;;;;;;5022508;28;20025;-72
2022/12/27 00:45:37;;;;;;;14.30;5.75;;;5.20;99.90;;;;;;5023462;28;20030;-72
2022/12/27 00:48:02;;;;;;;14.57;6.10;;;5.30;99.90;;;;;;5023601;28;20377;-71
2022/12/27 00:50:28;;;;;;;13.32;5.60;;;5.30;99.90;;;;;;5025405;28;20466;-71
2022/12/27 00:52:54;;;;;;;16.45;5.90;;;5.30;99.90;;;;;;4990568;28;20091;-72
2022/12/27 00:55:19;;;;;;;13.18;5.40;;;5.30;99.90;;;;;;5025260;28;20053;-72
2022/12/27 00:57:45;;;;;;;19.23;4.32;;;5.30;99.90;;;;;;5027951;28;20100;-71
2022/12/27 01:00:11;;;;;;;15.98;4.97;;;5.30;99.90;;;;;;5019582;28;20029;-70
2022/12/27 01:02:38;;;;;;;12.25;5.22;;;5.30;99.90;;;;;;5022496;28;20017;-71
2022/12/27 01:05:04;;;;;;;15.25;5.20;;;5.30;99.90;;;;;;5024026;28;20041;-72
2022/12/27 01:07:29;;;;;;;13.25;4.93;;;5.30;99.90;;;;;;5027960;28;20030;-71
2022/12/27 01:09:55;;;;;;;13.32;5.00;;;5.30;99.90;;;;;;5026066;28;20029;-71
2022/12/27 01:12:20;;;;;;;13.52;4.90;;;5.40;99.90;;;;;;5025507;28;20034;-72
2022/12/27 01:14:46;;;;;;;14.00;5.13;;;5.40;99.90;;;;;;5023994;28;20425;-72
2022/12/27 01:17:12;;;;;;;12.07;4.95;;;5.40;99.90;;;;;;5025351;28;20357;-72
2022/12/27 01:19:38;;;;;;;17.10;5.07;;;5.40;99.90;;;;;;5025577;28;20044;-73
2022/12/27 01:22:05;;;;;;;14.07;4.75;;;5.40;99.90;;;;;;5025082;28;20413;-71
2022/12/27 01:24:33;;;;;;;17.67;4.90;;;5.20;99.90;;;;;;5026734;28;20025;-71
2022/12/27 01:27:00;;;;;;;17.27;5.60;;;5.30;99.90;;;;;;5024547;28;20029;-72
2022/12/27 01:29:25;;;;;;;15.40;5.45;;;5.30;99.90;;;;;;5026026;28;20033;-72
2022/12/27 01:31:52;;;;;;;14.90;5.13;;;5.20;99.90;;;;;;5025751;28;20041;-71
2022/12/27 01:34:18;;;;;;;15.05;5.47;;;5.20;99.90;;;;;;5021756;28;20022;-72
2022/12/27 01:36:44;;;;;;;18.50;4.88;;;5.20;99.90;;;;;;5022595;28;20033;-72
2022/12/27 01:39:13;;;;;;;12.07;4.18;;;5.20;99.90;;;;;;5022266;28;20124;-71
2022/12/27 01:44:45;;;;;;;17.63;4.65;;;5.30;99.90;;;;;;5022481;28;20144;-72
2022/12/27 01:47:11;;;;;;;11.38;4.50;;;5.20;99.90;;;;;;5022700;28;20029;-71
2022/12/27 01:49:40;;;;;;;9.25;3.50;;;5.20;99.90;;;;;;5021966;28;20037;-71
2022/12/27 01:52:08;;;;;;;18.83;4.03;;;5.20;99.90;;;;;;5023933;28;20026;-71
2022/12/27 01:54:34;;;;;;;10.90;4.13;;;5.20;99.90;;;;;;5020849;28;20070;-71
2022/12/27 01:57:01;;;;;;;8.57;3.78;;;5.20;99.90;;;;;;5025161;28;20116;-71
2022/12/27 01:59:27;;;;;;;14.35;3.75;;;5.30;99.90;;;;;;5026692;28;20136;-72
2022/12/27 02:01:53;;;;;;;18.30;3.67;;;5.20;99.90;;;;;;5025597;28;20190;-71
2022/12/27 02:04:22;;;;;;;10.02;3.75;;;5.20;99.90;;;;;;5019688;28;20469;-71
2022/12/27 02:06:50;;;;;;;11.80;3.20;;;5.20;99.90;;;;;;5023377;28;20402;-72
2022/12/27 02:09:46;;;;;;;12.65;3.60;;;5.30;99.90;;;;;;5024566;28;20049;-71
2022/12/27 02:12:12;;;;;;;13.95;3.97;;;5.30;99.90;;;;;;5050275;28;20073;-71
2022/12/27 02:14:44;;;;;;;15.40;4.13;;;5.20;99.90;;;;;;5022282;28;20626;-71
2022/12/27 02:17:17;;;;;;;14.73;4.47;;;5.30;99.90;;;;;;5024742;28;20057;-72
2022/12/27 02:19:53;;;;;;;16.05;3.47;;;5.30;99.90;;;;;;5030247;28;20021;-71
2022/12/27 02:25:44;;;;;;;13.32;3.63;;;5.30;99.90;;;;;;5027583;28;20048;-71
2022/12/27 02:28:31;;;;;;;15.38;3.83;;;5.30;99.90;;;;;;5027877;28;20453;-71
2022/12/27 02:31:15;;;;;;;14.80;4.32;;;5.20;99.90;;;;;;5030360;28;20544;-72
2022/12/27 02:33:47;;;;;;;13.35;3.58;;;5.20;99.90;;;;;;5028251;28;20032;-71
2022/12/27 02:36:19;;;;;;;16.30;4.20;;;5.20;99.90;;;;;;5029616;28;20049;-71
2022/12/27 02:38:50;;;;;;;9.32;3.60;;;5.20;99.90;;;;;;5030071;28;20185;-72
2022/12/27 02:57:07;;;;;;;19.58;5.30;;;5.10;99.90;;;;;;5023509;28;20040;-71
2022/12/27 02:59:09;;;;;;;19.73;6.85;;;5.20;99.90;;;;;;5019893;28;20320;-71
2022/12/27 03:05:01;;;;;;;18.27;6.03;;;5.20;99.90;;;;;;5026972;28;20072;-70
2022/12/27 03:07:58;;;;;;;19.30;5.47;;;5.20;99.90;;;;;;5026077;28;20112;-71
2022/12/27 03:16:54;;;;;;;11.15;4.28;;;5.30;99.90;;;;;;5027765;28;20106;-71
2022/12/27 03:25:27;;;;;;;11.98;2.80;;;5.30;99.90;;;;;;5027809;28;20040;-72
2022/12/27 03:34:32;;;;;;;7.90;2.53;;;5.40;99.90;;;;;;5027219;28;20050;-72
2022/12/27 03:40:32;;;;;;;12.50;2.92;;;5.40;99.90;;;;;;5027753;28;20115;-71
2022/12/27 03:43:11;;;;;;;11.98;2.63;;;5.40;99.90;;;;;;5029162;28;20025;-71
2022/12/27 03:49:15;;;;;;;15.45;3.17;;;5.30;99.90;;;;;;5027494;28;20044;-71
2022/12/27 03:51:49;;;;;;;13.60;3.10;;;5.40;99.90;;;;;;5020889;28;20542;-71
2022/12/27 03:54:25;;;;;;;18.55;4.25;;;5.40;99.90;;;;;;5025807;28;20017;-72
2022/12/27 03:57:00;;;;;;;11.00;2.50;;;5.20;99.90;;;;;;5027158;28;20017;-71
2022/12/27 03:59:27;;;;;;;14.80;3.45;;;5.30;99.90;;;;;;5027371;28;20025;-71
2022/12/27 04:01:53;;;;;;;12.57;2.60;;;5.40;99.90;;;;;;5022117;28;20026;-71
2022/12/27 04:04:18;;;;;;;10.40;2.65;;;5.40;99.90;;;;;;5028377;28;20047;-71
2022/12/27 04:06:44;;;;;;;10.60;2.58;;;5.40;99.90;;;;;;5023498;28;20026;-71
2022/12/27 04:36:32;;;;;;;16.52;3.28;;;5.30;99.90;;;;;;5025604;28;20066;-71
2022/12/27 04:38:58;;;;;;;14.05;2.90;;;5.40;99.90;;;;;;5023865;28;20037;-71
2022/12/27 04:55:28;;;;;;;11.68;3.40;;;5.30;99.90;;;;;;5027506;28;20024;-71
2022/12/27 04:57:56;;;;;;;14.75;3.65;;;5.40;99.90;;;;;;5025342;28;20037;-72
2022/12/27 05:03:13;;;;;;;13.82;3.20;;;5.40;99.90;;;;;;5025674;28;20064;-71
2022/12/27 05:05:41;;;;;;;8.20;3.28;;;5.40;99.90;;;;;;5024109;28;20053;-71
2022/12/27 05:16:19;;;;;;;15.63;3.67;;;5.30;99.90;;;;;;5026559;28;20043;-71
2022/12/27 05:18:45;;;;;;;17.52;3.85;;;5.30;99.90;;;;;;5020351;28;20029;-71
2022/12/27 05:21:10;;;;;;;16.58;3.78;;;5.40;99.90;;;;;;5026763;28;20037;-70
2022/12/27 05:26:29;;;;;;;13.38;4.05;;;5.30;99.90;;;;;;5010811;28;20450;-71
2022/12/27 05:28:56;;;;;;;17.38;6.05;;;5.30;99.90;;;;;;5028189;28;20022;-71
2022/12/27 05:31:23;;;;;;;18.52;4.90;;;5.30;99.90;;;;;;5030321;28;20033;-70
2022/12/27 05:33:49;;;;;;;19.55;5.15;;;5.30;99.90;;;;;;5030748;28;20149;-71
2022/12/27 05:36:15;;;;;;;21.95;6.00;;;5.30;99.90;;;;;;5024547;28;20370;-71
2022/12/27 05:38:41;;;;;;;16.42;5.55;;;5.40;99.90;;;;;;5029359;28;20020;-71
2022/12/27 05:41:07;;;;;;;18.75;5.50;;;5.40;99.90;;;;;;5022867;28;20034;-71
2022/12/27 05:43:32;;;;;;;12.70;5.72;;;5.30;99.90;;;;;;5030154;28;20045;-71
2022/12/27 05:46:09;;;;;;;21.35;5.07;;;5.40;99.90;;;;;;5025808;28;20429;-71
2022/12/27 05:48:35;;;;;;;15.15;4.50;;;5.40;99.90;;;;;;5025237;28;20029;-71
2022/12/27 05:51:19;;;;;;;19.10;5.07;;;5.40;99.90;;;;;;5027538;28;20032;-71
2022/12/27 05:53:45;;;;;;;8.57;3.25;;;5.40;99.90;;;;;;5028848;28;20093;-71
2022/12/27 05:56:15;;;;;;;12.73;3.63;;;5.50;99.90;;;;;;5026697;28;20021;-71
2022/12/27 05:58:41;;;;;;;13.65;3.95;;;5.50;99.90;;;;;;5028422;28;20057;-71
2022/12/27 06:01:10;;;;;;;10.55;4.47;;;5.40;99.90;;;;;;5031257;28;20034;-71
2022/12/27 06:03:36;;;;;;;22.60;4.07;;;5.40;99.90;;;;;;5031112;28;20505;-71
2022/12/27 06:06:03;;;;;;;12.93;3.63;;;5.40;99.90;;;;;;5029950;28;20053;-71
2022/12/27 06:08:28;;;;;;;9.23;3.67;;;5.40;99.90;;;;;;5033247;28;20033;-71
2022/12/27 06:11:11;;;;;;;11.13;3.50;;;5.30;99.90;;;;;;5022086;28;20029;-71
2022/12/27 06:13:38;;;;;;;8.77;3.53;;;5.30;99.90;;;;;;5030559;28;20037;-71
2022/12/27 06:16:06;;;;;;;14.18;4.50;;;5.30;99.90;;;;;;5029754;28;20108;-71
2022/12/27 06:18:33;;;;;;;14.52;4.10;;;5.20;99.90;;;;;;5032192;28;20079;-72
2022/12/27 06:21:25;;;;;;;14.55;4.60;;;5.30;99.90;;;;;;5027918;28;20049;-71
2022/12/27 06:23:50;;;;;;;15.90;5.03;;;5.30;99.90;;;;;;5028276;28;20045;-71
2022/12/27 06:26:19;;;;;;;17.00;5.20;;;5.20;99.90;;;;;;5032421;28;20029;-71
2022/12/27 06:28:45;;;;;;;13.10;4.90;;;5.20;99.90;;;;;;5030337;28;20025;-71
2022/12/27 06:31:11;;;;;;;11.55;4.40;;;5.20;99.90;;;;;;5026341;28;20052;-71
2022/12/27 06:33:37;;;;;;;13.63;4.35;;;5.20;99.90;;;;;;5029845;28;20064;-71
2022/12/27 06:36:11;;;;;;;14.65;4.32;;;5.20;99.90;;;;;;5029814;28;20555;-71
2022/12/27 06:38:37;;;;;;;14.23;4.35;;;5.20;99.90;;;;;;5030570;28;20034;-71
2022/12/27 06:41:05;;;;;;;19.00;4.75;;;5.20;99.90;;;;;;5026829;28;20397;-71
2022/12/27 06:43:30;;;;;;;17.55;5.25;;;5.20;99.90;;;;;;5031223;28;20116;-72
2022/12/27 06:46:01;;;;;;;17.63;4.25;;;5.30;99.90;;;;;;5032484;28;20100;-71
2022/12/27 06:48:27;;;;;;;10.20;4.53;;;5.30;99.90;;;;;;5028575;28;20038;-72
2022/12/27 06:50:53;;;;;;;17.48;5.03;;;5.30;99.90;;;;;;5027309;28;20030;-72
2022/12/27 06:53:19;;;;;;;16.30;5.50;;;5.20;99.90;;;;;;5031012;28;20096;-71
2022/12/27 06:55:44;;;;;;;16.30;5.47;;;5.30;99.90;;;;;;5030745;28;20030;-71
2022/12/27 06:58:11;;;;;;;12.35;4.82;;;5.30;99.90;;;;;;5021410;28;20034;-71
2022/12/27 07:00:37;;;;;;;12.50;4.50;;;5.30;99.90;;;;;;5030663;28;20017;-72
2022/12/27 07:03:03;;;;;;;14.05;4.28;;;5.30;99.90;;;;;;5025024;28;20091;-71
2022/12/27 07:05:29;;;;;;;15.07;5.30;;;5.30;99.90;;;;;;5026976;28;20108;-72
2022/12/27 07:07:54;;;;;;;21.23;5.70;;;5.40;99.90;;;;;;5027515;28;20112;-72
2022/12/27 07:10:20;;;;;;;15.80;5.90;;;5.30;99.90;;;;;;5027113;28;20044;-71
2022/12/27 07:12:46;;;;;;;16.45;5.40;;;5.30;99.90;;;;;;5021792;28;20037;-71
2022/12/27 07:15:11;;;;;;;19.48;5.32;;;5.30;99.90;;;;;;5023874;28;20041;-71
2022/12/27 07:17:38;;;;;;;16.27;5.80;;;5.30;99.90;;;;;;5056939;28;20398;-72
2022/12/27 07:20:05;;;;;;;17.10;5.55;;;5.40;99.90;;;;;;5025913;28;20113;-71
2022/12/27 07:22:31;;;;;;;16.17;6.07;;;5.40;99.90;;;;;;5021314;28;20485;-71
2022/12/27 07:24:56;;;;;;;15.05;6.43;;;5.30;99.90;;;;;;5022059;28;20044;-71
2022/12/27 07:27:22;;;;;;;18.05;5.50;;;5.30;99.90;;;;;;5026303;28;20033;-71
2022/12/27 07:29:48;;;;;;;19.27;5.30;;;5.30;99.90;;;;;;5022205;28;20040;-71
2022/12/27 07:32:13;;;;;;;15.73;5.25;;;5.20;99.90;;;;;;5028636;28;20037;-72
2022/12/27 07:34:39;;;;;;;12.60;5.15;;;5.10;99.90;;;;;;5025483;28;20562;-72
2022/12/27 07:37:05;;;;;;;14.43;5.22;;;5.20;99.90;;;;;;5026197;28;20021;-71
2022/12/27 07:39:30;;;;;;;11.95;4.43;;;5.10;99.90;;;;;;5023582;28;20386;-71
2022/12/27 07:41:56;;;;;;;12.88;5.70;;;5.20;99.90;;;;;;5023789;28;20478;-72
2022/12/27 07:44:21;;;;;;;18.50;6.15;;;5.20;99.90;;;;;;5021819;28;20031;-72
2022/12/27 07:46:47;;;;;;;15.57;5.68;;;5.10;99.90;;;;;;5029710;28;20489;-72
2022/12/27 07:49:13;;;;;;;15.13;5.78;;;5.10;99.90;;;;;;5055621;28;20029;-72
2022/12/27 07:51:38;;;;;;;14.18;5.25;;;5.10;99.90;;;;;;5026126;28;20091;-72
2022/12/27 07:54:04;;;;;;;11.85;5.13;;;5.10;99.90;;;;;;5034300;28;20029;-71
2022/12/27 07:56:30;;;;;;;12.85;4.82;;;5.20;99.90;;;;;;5025058;28;20037;-71
2022/12/27 07:58:57;;;;;;;14.15;4.82;;;5.20;99.90;;;;;;5021577;28;20502;-71
2022/12/27 08:01:25;;;;;;;17.98;5.32;;;5.10;99.90;;;;;;5029248;28;20029;-72
2022/12/27 08:03:50;;;;;;;17.27;5.32;;;5.10;99.90;;;;;;5025009;28;20084;-72
2022/12/27 08:06:29;;;;;;;16.80;5.80;;;5.10;99.90;;;;;;5023339;28;20034;-72
2022/12/27 08:08:57;;;;;;;17.20;4.85;;;5.10;99.90;;;;;;5020741;28;20034;-72
2022/12/27 08:11:25;;;;;;;8.70;4.47;;;5.10;99.90;;;;;;5028408;28;20120;-71
2022/12/27 08:13:51;;;;;;;12.07;4.53;;;5.10;99.90;;;;;;5026278;28;20064;-71
2022/12/27 08:16:20;;;;;;;17.13;4.90;;;5.10;99.90;;;;;;5031061;28;20429;-72
2022/12/27 08:18:47;;;;;;;17.05;4.75;;;5.10;99.90;;;;;;5017761;28;20017;-71
2022/12/27 08:21:12;;;;;;;13.75;4.65;;;5.10;99.90;;;;;;5026978;28;20022;-71
2022/12/27 08:23:38;;;;;;;13.30;5.10;;;5.20;99.90;;;;;;5020499;28;20079;-71
2022/12/27 08:26:06;;;;;;;11.43;5.28;;;5.10;99.90;;;;;;5029024;28;20018;-71
2022/12/27 08:28:32;;;;;;;15.48;5.15;;;5.10;99.90;;;;;;5020683;28;20486;-71
2022/12/27 08:30:59;;;;;;;17.63;4.88;;;5.20;99.90;;;;;;5018067;28;20040;-71
2022/12/27 08:33:24;;;;;;;13.13;4.72;;;5.10;99.90;;;;;;5024477;28;20037;-71
2022/12/27 08:35:50;;;;;;;14.88;5.60;;;5.10;99.90;;;;;;5029218;28;20029;-71
2022/12/27 08:38:16;;;;;;;9.32;4.50;;;5.10;99.90;;;;;;5020365;28;20117;-71
2022/12/27 08:40:44;;;;;;;12.57;5.30;;;5.10;99.90;;;;;;5021413;28;20080;-71
2022/12/27 08:43:10;;;;;;;15.48;4.47;;;5.10;99.90;;;;;;5021160;28;20488;-71
2022/12/27 08:45:37;;;;;;;13.40;5.13;;;5.10;99.90;;;;;;5030054;28;20026;-72
2022/12/27 08:48:04;;;;;;;12.88;4.70;;;5.10;99.90;;;;;;5031082;28;20021;-71
2022/12/27 08:50:30;;;;;;;10.63;4.95;;;5.10;99.90;;;;;;5021983;28;20022;-71
2022/12/27 08:52:57;;;;;;;13.38;4.55;;;5.20;99.90;;;;;;5023523;28;20060;-70
2022/12/27 08:55:23;;;;;;;23.70;5.80;;;5.30;99.90;;;;;;5027383;28;20026;-71
2022/12/27 08:57:49;;;;;;;10.40;4.45;;;5.30;99.90;;;;;;5029853;28;20028;-70
2022/12/27 09:00:15;;;;;;;13.23;5.53;;;5.30;99.90;;;;;;5031604;28;20026;-70
2022/12/27 09:02:40;;;;;;;20.70;5.78;;;5.40;99.90;;;;;;5034279;28;20077;-71
2022/12/27 09:05:06;;;;;;;11.45;5.68;;;5.40;99.90;;;;;;5030259;28;20067;-71
2022/12/27 09:07:32;;;;;;;19.70;5.47;;;5.40;99.90;;;;;;5032495;28;20017;-70
2022/12/27 09:09:57;;;;;;;10.75;5.45;;;5.40;99.90;;;;;;5025780;28;20513;-71
2022/12/27 09:12:23;;;;;;;16.33;5.18;;;5.40;99.90;;;;;;5026597;28;20037;-71
2022/12/27 09:14:48;;;;;;;19.20;5.32;;;5.40;99.90;;;;;;5026775;28;20081;-71
2022/12/27 09:17:14;;;;;;;16.30;5.40;;;5.50;99.90;;;;;;5025955;28;20028;-71
2022/12/27 09:19:39;;;;;;;18.73;6.25;;;5.50;99.90;;;;;;5025727;28;20075;-71
2022/12/27 09:22:05;;;;;;;18.33;6.30;;;5.60;99.90;;;;;;5031366;28;20068;-71
2022/12/27 09:24:31;;;;;;;22.75;5.78;;;5.60;99.90;;;;;;5024684;28;20733;-71
2022/12/27 09:26:56;;;;;;;10.85;4.30;;;5.60;99.90;;;;;;5027424;28;20076;-70
2022/12/27 09:29:22;;;;;;;18.10;5.30;;;5.60;99.90;;;;;;5026026;28;20025;-70
2022/12/27 09:31:47;;;;;;;12.40;4.18;;;5.60;99.90;;;;;;5027337;28;20147;-69
2022/12/27 09:34:13;;;;;;;17.08;5.50;;;5.60;99.90;;;;;;5035807;28;20033;-70
2022/12/27 09:36:39;;;;;;;15.70;4.38;;;5.60;99.90;;;;;;5023802;28;20040;-69
2022/12/27 09:39:05;;;;;;;13.48;5.38;;;5.70;99.90;;;;;;5029809;28;20109;-69
2022/12/27 09:41:50;;;;;;;14.70;4.63;;;5.70;99.90;;;;;;5037835;28;20068;-69
2022/12/27 09:44:22;;;;;;;14.98;4.90;;;5.70;99.90;;;;;;5031518;28;20545;-70
2022/12/27 09:47:03;;;;;;;;;;;5.70;99.90;;;;;;5025524;28;20071;-67
2022/12/27 09:49:30;;;;;;;13.77;5.07;;;5.80;99.90;;;;;;5023439;28;20323;-69
2022/12/27 09:52:16;;;;;;;12.93;4.28;;;5.90;99.90;;;;;;5019344;28;20045;-69
2022/12/27 09:54:42;;;;;;;15.65;5.07;;;5.90;99.90;;;;;;5026768;28;20039;-70
2022/12/27 09:57:17;;;;;;;15.20;5.18;;;6.00;99.90;;;;;;5029375;28;20021;-70
2022/12/27 09:59:49;;;;;;;11.63;4.00;;;6.10;99.90;;;;;;5026074;28;20033;-70
2022/12/27 10:02:23;;;;;;;14.73;4.45;;;6.10;99.90;;;;;;5026821;28;20029;-70
2022/12/27 10:04:50;;;;;;;12.73;3.90;;;6.10;99.90;;;;;;5027180;28;20536;-69
2022/12/27 10:07:37;;;;;;;11.05;4.07;;;6.20;99.90;;;;;;5026741;28;20048;-70
2022/12/27 10:10:11;;;;;;;15.07;4.35;;;6.20;99.90;;;;;;5028525;28;20381;-70
2022/12/27 10:12:57;;;;;;;9.10;4.10;;;6.30;99.90;;;;;;5026849;28;20050;-69
2022/12/27 10:15:29;;;;;;;8.30;3.70;;;6.30;99.90;;;;;;5023801;28;20069;-69
2022/12/27 10:18:19;;;;;;;12.05;3.83;;;6.40;99.90;;;;;;5039854;28;20397;-70
2022/12/27 10:20:57;;;;;;;9.27;3.83;;;6.40;99.90;;;;;;5029935;28;20021;-70
2022/12/27 10:23:26;;;;;;;12.93;4.13;;;6.50;99.90;;;;;;5027689;28;20037;-70
2022/12/27 10:25:59;;;;;;;10.75;3.65;;;6.50;99.90;;;;;;5027031;28;20475;-70
2022/12/27 10:28:36;;;;;;;9.52;3.45;;;6.60;99.90;;;;;;5027727;28;20116;-70
2022/12/27 10:31:03;;;;;;;9.82;3.50;;;6.60;99.90;;;;;;5026678;28;20084;-71
2022/12/27 10:33:31;;;;;;;9.40;3.72;;;6.70;99.90;;;;;;5024064;28;20041;-69
2022/12/27 10:35:57;;;;;;;11.45;3.72;;;6.70;99.90;;;;;;5033362;28;20108;-69
2022/12/27 10:38:24;;;;;;;9.82;3.22;;;6.70;99.90;;;;;;5025961;28;20544;-69
2022/12/27 10:41:04;;;;;;;14.20;3.80;;;6.80;99.90;;;;;;5026879;28;20152;-68
2022/12/27 10:43:40;;;;;;;11.55;3.40;;;6.80;99.90;;;;;;5052315;28;20080;-68
2022/12/27 10:46:31;;;;;;;7.38;4.30;;;6.90;99.90;;;;;;5033247;28;20013;-68
2022/12/27 10:49:19;;;;;;;10.45;3.40;;;6.90;99.90;;;;;;5023471;28;20049;-68
2022/12/27 10:51:45;;;;;;;10.45;3.17;;;6.90;99.90;;;;;;5022403;28;20049;-68
2022/12/27 10:54:14;;;;;;;10.23;3.40;;;7.00;99.90;;;;;;5024567;28;20030;-68
2022/12/27 10:56:42;;;;;;;11.05;3.85;;;7.00;99.90;;;;;;5025950;28;20438;-69
2022/12/27 10:59:26;;;;;;;14.02;3.80;;;7.10;99.90;;;;;;5030692;28;20057;-69
2022/12/27 11:02:01;;;;;;;14.35;3.25;;;7.10;99.90;;;;;;5024526;28;20030;-68
2022/12/27 11:04:28;;;;;;;7.60;3.22;;;7.30;99.90;;;;;;5030496;28;20440;-69
2022/12/27 11:07:03;;;;;;;9.40;3.75;;;7.30;99.90;;;;;;5024399;28;20370;-70
2022/12/27 11:09:28;;;;;;;7.90;3.38;;;7.30;99.90;;;;;;5029126;28;20461;-70
2022/12/27 11:12:24;;;;;;;7.60;3.00;;;7.40;99.90;;;;;;5023303;28;20084;-69
2022/12/27 11:14:59;;;;;;;12.35;3.72;;;7.40;99.90;;;;;;5024317;28;20087;-69
2022/12/27 11:17:30;;;;;;;12.57;3.50;;;7.60;99.90;;;;;;5024005;28;20041;-69
2022/12/27 11:20:00;;;;;;;10.43;3.65;;;7.60;99.90;;;;;;5027357;28;20024;-70
2022/12/27 11:22:26;;;;;;;7.72;2.50;;;7.70;99.90;;;;;;5020404;28;20087;-71
2022/12/27 11:24:57;;;;;;;13.38;3.10;;;7.60;99.90;;;;;;5026404;28;20037;-71
2022/12/27 11:27:25;;;;;;;8.95;3.05;;;7.70;99.90;;;;;;5021336;28;20029;-70
2022/12/27 11:29:54;;;;;;;8.40;3.00;;;7.70;99.90;;;;;;5028955;28;20049;-71
2022/12/27 11:32:22;;;;;;;8.30;3.00;;;7.70;99.90;;;;;;5024740;28;20092;-71
2022/12/27 11:34:49;;;;;;;10.05;3.67;;;7.70;99.90;;;;;;5026406;28;20033;-71
2022/12/27 11:37:21;;;;;;;12.48;3.47;;;7.80;99.90;;;;;;5028923;28;20028;-70
2022/12/27 11:39:50;;;;;;;7.80;2.75;;;7.90;99.90;;;;;;5021572;28;20021;-72
2022/12/27 11:42:37;;;;;;;8.82;2.75;;;7.90;99.90;;;;;;5025706;28;20022;-71
2022/12/27 11:45:02;;;;;;;14.35;3.47;;;7.90;99.90;;;;;;5020016;28;20054;-71
2022/12/27 11:47:44;;;;;;;7.45;3.40;;;8.00;99.90;;;;;;5024663;28;20056;-71
2022/12/27 11:50:18;;;;;;;10.98;3.80;;;8.00;99.90;;;;;;5022157;28;20471;-71
2022/12/27 11:53:04;;;;;;;12.98;3.35;;;8.00;99.90;;;;;;5026034;28;20397;-71
2022/12/27 11:55:43;;;;;;;8.52;3.03;;;8.10;99.90;;;;;;5021169;28;20112;-72
2022/12/27 11:58:17;;;;;;;9.02;4.07;;;8.10;99.90;;;;;;5026180;28;20493;-72
2022/12/27 12:00:52;;;;;;;10.13;3.30;;;8.10;99.90;;;;;;5032547;28;20030;-71
2022/12/27 12:03:37;;;;;;;12.98;3.53;;;8.20;99.90;;;;;;5027408;28;20104;-71
2022/12/27 12:06:25;;;;;;;15.68;3.60;;;8.20;99.90;;;;;;5020782;28;20025;-71
2022/12/27 12:09:24;;;;;;;9.73;3.30;;;8.30;99.90;;;;;;5020308;28;20046;-71
2022/12/27 12:11:56;;;;;;;12.50;4.03;;;8.40;99.90;;;;;;5037412;28;20030;-71
2022/12/27 12:15:16;;;;;;;13.83;4.10;;;8.30;99.90;;;;;;5026542;28;20033;-71
2022/12/27 12:18:35;;;;;;;9.88;4.13;;;8.30;99.90;;;;;;5103700;27;20132;-72
2022/12/27 12:21:12;;;;;;;10.32;3.72;;;8.30;99.90;;;;;;5083836;28;20024;-71
2022/12/27 12:24:16;;;;;;;8.73;3.45;;;8.40;99.90;;;;;;5092842;28;20039;-72
2022/12/27 12:27:21;;;;;;;8.85;3.90;;;8.40;99.90;;;;;;5088975;28;20523;-72
2022/12/27 12:30:03;;;;;;;11.15;3.60;;;8.40;99.90;;;;;;5083951;28;20059;-71
2022/12/27 12:32:40;;;;;;;8.73;3.55;;;8.40;99.90;;;;;;5083453;28;20099;-71
2022/12/27 12:35:34;;;;;;;10.82;3.65;;;8.30;99.90;;;;;;5087363;28;20042;-71
2022/12/27 12:38:28;;;;;;;8.27;3.33;;;8.40;99.90;;;;;;5110847;27;20032;-71
2022/12/27 12:41:02;;;;;;;9.93;3.03;;;8.40;99.90;;;;;;5084772;28;20381;-70
2022/12/27 12:44:03;;;;;;;11.10;3.20;;;8.40;99.90;;;;;;5080241;28;20477;-71
2022/12/27 12:46:46;;;;;;;16.48;3.72;;;8.40;99.90;;;;;;5086954;28;20036;-72
2022/12/27 12:49:17;;;;;;;11.73;4.47;;;8.40;99.90;;;;;;5083826;28;20017;-70
2022/12/27 12:52:07;;;;;;;9.95;3.63;;;8.40;99.90;;;;;;5057393;28;20032;-70
2022/12/27 12:54:57;;;;;;;12.10;4.05;;;8.50;99.90;;;;;;5083343;28;20039;-70
2022/12/27 12:57:36;;;;;;;16.20;4.18;;;8.40;99.90;;;;;;5080583;28;20118;-71
2022/12/27 13:00:08;;;;;;;17.15;3.70;;;8.40;99.90;;;;;;5082747;28;20024;-70
2022/12/27 13:03:20;;;;;;;9.83;3.47;;;8.40;99.90;;;;;;5083466;28;20020;-70
2022/12/27 13:06:07;;;;;;;12.10;3.65;;;8.50;99.90;;;;;;5077540;28;20302;-71
2022/12/27 13:09:02;;;;;;;13.45;4.30;;;8.50;99.90;;;;;;5082380;28;20078;-71
2022/12/27 13:11:53;;;;;;;8.02;3.28;;;8.50;99.90;;;;;;5082295;28;20102;-70
2022/12/27 13:14:40;;;;;;;15.90;3.80;;;8.60;99.90;;;;;;5083179;28;20017;-70
2022/12/27 13:17:37;;;;;;;12.35;3.92;;;8.60;99.90;;;;;;5082624;28;20437;-70
2022/12/27 13:20:17;;;;;;;13.90;3.75;;;8.50;99.90;;;;;;5085128;28;20035;-71
2022/12/27 13:23:11;;;;;;;12.80;3.83;;;8.50;99.90;;;;;;5084236;28;20583;-71
2022/12/27 13:25:49;;;;;;;18.55;4.53;;;8.50;99.90;;;;;;5084542;28;20026;-71
2022/12/27 13:28:45;;;;;;;12.00;4.53;;;8.60;99.90;;;;;;5072083;28;20078;-71
2022/12/27 13:31:31;;;;;;;12.48;3.55;;;8.60;99.90;;;;;;5065413;28;20111;-71
2022/12/27 13:34:18;;;;;;;13.43;3.58;;;8.60;99.90;;;;;;5098638;27;20483;-69
2022/12/27 13:37:06;;;;;;;8.25;3.42;;;8.60;99.90;;;;;;5070424;28;20041;-70
2022/12/27 13:39:41;;;;;;;14.52;3.85;;;8.70;99.90;;;;;;5066934;28;20036;-69
2022/12/27 13:42:30;;;;;;;14.25;4.90;;;8.70;99.90;;;;;;5068820;28;20369;-70
2022/12/27 13:45:18;;;;;;;11.20;3.83;;;8.70;99.90;;;;;;5066399;28;20190;-69
2022/12/27 13:48:22;;;;;;;12.43;3.60;;;8.70;99.90;;;;;;5097133;27;20078;-69
2022/12/27 13:51:09;;;;;;;16.35;3.88;;;8.70;99.90;;;;;;5066014;28;20100;-69
2022/12/27 13:54:03;;;;;;;18.63;4.22;;;8.70;99.90;;;;;;5068058;28;20028;-69
2022/12/27 13:57:13;;;;;;;8.95;3.53;;;8.70;99.90;;;;;;5062959;28;20120;-70
2022/12/27 13:59:39;;;;;;;21.08;5.25;;;8.80;99.90;;;;;;5064521;28;20056;-69
2022/12/27 14:02:36;;;;;;;12.35;3.53;;;8.80;99.90;;;;;;5068099;28;20484;-69
2022/12/27 14:05:01;;;;;;;17.13;3.70;;;8.70;99.90;;;;;;5070936;28;20024;-69
2022/12/27 14:07:35;;;;;;;11.48;3.75;;;8.80;99.90;;;;;;5068363;28;20016;-70
2022/12/27 14:10:07;;;;;;;13.27;4.00;;;8.80;99.90;;;;;;5094196;27;20031;-69
2022/12/27 14:13:00;;;;;;;12.30;3.92;;;8.70;99.90;;;;;;5098383;27;20024;-69
2022/12/27 14:15:44;;;;;;;8.32;3.53;;;8.70;99.90;;;;;;5097682;27;20485;-69
2022/12/27 14:18:47;;;;;;;6.40;2.95;;;8.70;99.90;;;;;;5069134;28;20041;-69
2022/12/27 14:21:44;;;;;;;11.38;3.45;;;8.70;99.90;;;;;;5067484;28;20032;-70
2022/12/27 14:24:24;;;;;;;10.48;3.53;;;8.70;99.90;;;;;;5042529;28;20115;-69
2022/12/27 14:27:05;;;;;;;7.97;3.00;;;8.70;99.90;;;;;;5069560;28;20028;-70
2022/12/27 14:29:42;;;;;;;11.20;3.67;;;8.70;99.90;;;;;;5067252;28;20025;-70
2022/12/27 14:32:42;;;;;;;9.40;3.35;;;8.60;99.90;;;;;;5066298;28;20473;-69
2022/12/27 14:35:22;;;;;;;9.85;3.72;;;8.60;99.90;;;;;;5067228;28;20029;-69
2022/12/27 14:37:57;;;;;;;10.98;3.58;;;8.60;99.90;;;;;;5068410;28;20086;-69
2022/12/27 14:40:28;;;;;;;8.63;3.20;;;8.70;99.90;;;;;;5063444;28;20365;-69
2022/12/27 14:43:33;;;;;;;10.40;3.50;;;8.60;99.90;;;;;;5067663;28;20020;-69
2022/12/27 14:46:49;;;;;;;12.10;3.65;;;8.60;99.90;;;;;;5065288;28;20465;-70
2022/12/27 14:50:05;;;;;;;13.48;3.65;;;8.60;99.90;;;;;;5030730;28;20115;-69
2022/12/27 14:53:02;;;;;;;16.52;3.70;;;8.60;99.90;;;;;;5066411;28;20122;-70
2022/12/27 14:55:58;;;;;;;14.25;3.95;;;8.60;99.90;;;;;;5095099;27;20447;-69
2022/12/27 14:58:33;;;;;;;22.88;3.70;;;8.60;99.90;;;;;;5069252;28;20025;-69
2022/12/27 15:01:02;;;;;;;9.20;3.25;;;8.70;99.90;;;;;;5064958;28;20020;-71
2022/12/27 15:03:43;;;;;;;9.55;3.17;;;8.60;99.90;;;;;;5067818;28;20038;-70
2022/12/27 15:06:30;;;;;;;8.60;3.10;;;8.50;99.90;;;;;;5064495;28;20048;-70